Time;durP1;ratioP1;P1;durP2;ratioP2;P2;SDS_P1;SDS_P2;PMS_P1;PMS_P2;Temp;Humidity;BMP_temperature;BMP_pressure;BME280_temperature;BME280_humidity;BME280_pressure;Samples;Min_cycle;Max_cycle;Signal;HPM_P1;HPM_P2
2022/11/05 00:10:58;;;;;;;17.35;9.63;;;;;;;21.39;45.78;100313.06;1695504;82;21068;-85
2022/11/05 00:19:05;;;;;;;16.05;10.05;;;;;;;21.38;45.80;100312.84;1713592;82;21106;-84
2022/11/05 00:27:00;;;;;;;15.35;9.95;;;;;;;21.38;45.78;100308.69;1715726;83;21604;-85
2022/11/05 00:29:27;;;;;;;17.98;10.70;;;;;;;21.37;45.78;100309.27;1712520;81;21143;-85
2022/11/05 00:31:53;;;;;;;18.80;10.32;;;;;;;21.37;45.75;100309.27;1713954;82;21084;-84
2022/11/05 00:34:19;;;;;;;14.55;10.60;;;;;;;21.37;45.78;100305.11;1725133;82;21167;-85
2022/11/05 00:36:45;;;;;;;16.32;10.20;;;;;;;21.36;45.75;100310.40;1733137;81;21719;-85
2022/11/05 00:39:12;;;;;;;16.37;9.93;;;;;;;21.36;45.78;100315.13;1735509;81;21464;-85
2022/11/05 00:41:38;;;;;;;14.90;10.30;;;;;;;21.37;45.78;100319.52;1707665;82;21480;-84
2022/11/05 00:49:28;;;;;;;13.48;9.55;;;;;;;21.37;45.77;100316.75;1729488;81;21605;-85
2022/11/05 00:49:30;;;;;;;15.80;10.55;;;;;;;21.37;45.75;100323.09;1733465;81;21335;-84
2022/11/05 00:54:27;;;;;;;15.88;9.90;;;;;;;21.36;45.75;100328.39;1688339;82;21051;-84
2022/11/05 00:56:53;;;;;;;14.78;9.88;;;;;;;21.36;45.75;100320.08;1733183;82;21728;-84
2022/11/05 00:59:20;;;;;;;14.10;10.08;;;;;;;21.37;45.75;100312.59;1733069;81;21007;-85
2022/11/05 01:01:46;;;;;;;16.42;10.20;;;;;;;21.36;45.75;100313.16;1728642;82;21737;-84
2022/11/05 01:04:12;;;;;;;17.60;10.63;;;;;;;21.36;45.73;100309.59;1737947;82;21032;-84
2022/11/05 01:06:39;;;;;;;16.02;10.23;;;;;;;21.37;45.71;100308.45;1692119;82;21029;-84
2022/11/05 01:09:05;;;;;;;15.03;10.32;;;;;;;21.35;45.71;100308.77;1654556;84;21131;-84
2022/11/05 01:11:31;;;;;;;15.30;10.60;;;;;;;21.38;45.69;100310.08;1710460;81;21040;-84
2022/11/05 01:14:01;;;;;;;16.62;9.93;;;;;;;21.36;45.68;100301.28;1710284;81;21288;-84
2022/11/05 01:16:27;;;;;;;16.35;10.93;;;;;;;21.36;45.68;100302.09;1720568;81;21606;-84
2022/11/05 01:18:53;;;;;;;14.05;10.13;;;;;;;21.35;45.68;100293.55;1685477;82;21088;-85
2022/11/05 01:21:20;;;;;;;14.10;10.25;;;;;;;21.36;45.66;100288.83;1698914;82;21069;-84
2022/11/05 01:23:46;;;;;;;15.55;10.05;;;;;;;21.36;45.66;100284.68;1700909;82;20983;-84
2022/11/05 01:26:12;;;;;;;15.78;10.15;;;;;;;21.36;45.64;100273.61;1701225;82;21163;-85
2022/11/05 01:28:38;;;;;;;15.93;9.70;;;;;;;21.35;45.65;100270.60;1703905;82;21060;-85
2022/11/05 01:31:05;;;;;;;14.03;9.75;;;;;;;21.35;45.61;100276.13;1709750;82;21135;-84
2022/11/05 01:33:31;;;;;;;14.13;10.25;;;;;;;21.35;45.61;100267.83;1707357;83;21112;-84
2022/11/05 01:35:57;;;;;;;16.12;9.80;;;;;;;21.34;45.62;100273.94;1682770;82;21060;-84
2022/11/05 01:38:24;;;;;;;16.95;9.95;;;;;;;21.35;45.61;100274.18;1656322;84;21162;-84
2022/11/05 01:40:50;;;;;;;15.90;10.20;;;;;;;21.35;45.61;100282.48;1682115;82;21062;-84
2022/11/05 01:43:20;;;;;;;12.95;8.48;;;;;;;21.35;45.59;100280.28;1714560;81;21142;-84
2022/11/05 01:45:52;;;;;;;16.23;9.85;;;;;;;21.34;45.60;100280.85;1720243;81;21005;-84
2022/11/05 01:48:29;;;;;;;15.48;10.03;;;;;;;21.34;45.59;100282.23;1714216;81;21095;-84
2022/11/05 01:51:10;;;;;;;14.23;10.18;;;;;;;21.34;45.59;100285.00;1719787;82;21473;-85
2022/11/05 01:53:52;;;;;;;14.18;9.58;;;;;;;21.34;45.58;100285.61;1694220;83;21152;-85
2022/11/05 01:56:26;;;;;;;15.72;10.18;;;;;;;21.34;45.59;100288.37;1710839;82;21567;-84
2022/11/05 01:58:57;;;;;;;15.40;9.70;;;;;;;21.32;45.57;100276.81;1682583;82;21072;-84
2022/11/05 02:01:24;;;;;;;14.65;9.85;;;;;;;21.32;45.55;100276.25;1685120;82;21107;-84
2022/11/05 02:03:52;;;;;;;13.32;9.63;;;;;;;21.32;45.56;100276.25;1685924;82;21205;-84
2022/11/05 02:06:19;;;;;;;14.90;9.98;;;;;;;21.32;45.54;100274.86;1689946;83;21220;-85
2022/11/05 02:09:15;;;;;;;16.02;10.18;;;;;;;21.31;45.56;100277.95;1682541;82;21108;-85
2022/11/05 02:11:43;;;;;;;13.85;9.70;;;;;;;21.32;45.55;100274.05;1662692;82;39426;-84
2022/11/05 02:14:09;;;;;;;14.20;9.95;;;;;;;21.32;45.54;100276.25;1662382;83;21609;-84
2022/11/05 02:16:47;;;;;;;15.88;10.15;;;;;;;21.31;45.53;100267.70;1662985;84;21406;-84
2022/11/05 02:19:25;;;;;;;13.13;9.73;;;;;;;21.31;45.51;100270.47;1682986;82;21056;-84
2022/11/05 02:22:41;;;;;;;15.15;10.70;;;;;;;21.30;45.52;100269.44;1684274;82;22011;-84
2022/11/05 02:25:52;;;;;;;15.13;9.53;;;;;;;21.29;45.50;100258.94;1674786;84;21139;-84
2022/11/05 02:28:36;;;;;;;16.82;10.25;;;;;;;21.28;45.49;100262.84;1660864;85;21335;-84
2022/11/05 02:31:24;;;;;;;14.40;9.53;;;;;;;21.28;45.49;100256.50;1666548;85;21525;-84
2022/11/05 02:33:58;;;;;;;14.65;9.80;;;;;;;21.27;45.49;100271.47;1659926;85;21133;-84
2022/11/05 02:36:47;;;;;;;13.53;9.40;;;;;;;21.27;45.49;100276.43;1663383;85;21550;-84
2022/11/05 02:39:43;;;;;;;13.90;9.45;;;;;;;21.27;45.52;100268.70;1672581;85;21615;-84
2022/11/05 02:42:52;;;;;;;15.30;10.13;;;;;;;21.26;45.52;100272.03;1664843;85;21112;-85
2022/11/05 02:45:53;;;;;;;15.93;9.75;;;;;;;21.26;45.50;100274.02;1662313;84;21633;-84
2022/11/05 02:48:56;;;;;;;14.38;9.38;;;;;;;21.25;45.47;100275.97;1664190;84;21088;-84
2022/11/05 02:51:40;;;;;;;14.35;9.70;;;;;;;21.24;45.47;100281.83;1665393;85;21075;-84
2022/11/05 02:54:37;;;;;;;13.50;9.43;;;;;;;21.24;45.47;100285.98;1666637;85;21080;-84
2022/11/05 02:57:04;;;;;;;16.45;9.55;;;;;;;21.24;45.46;100284.59;1665910;85;21243;-84
2022/11/05 02:59:30;;;;;;;14.40;9.75;;;;;;;21.23;45.47;100276.05;1644326;85;21199;-84
2022/11/05 03:01:56;;;;;;;14.05;9.60;;;;;;;21.22;45.49;100276.62;1680378;84;21033;-84
2022/11/05 03:04:23;;;;;;;13.45;8.60;;;;;;;21.23;45.50;100281.58;1698752;84;21166;-84
2022/11/05 03:07:22;;;;;;;13.90;9.68;;;;;;;21.23;45.50;100277.44;1697101;84;21084;-84
2022/11/05 03:10:27;;;;;;;15.38;9.73;;;;;;;21.23;45.51;100281.58;1694756;84;21535;-84
2022/11/05 03:13:35;;;;;;;13.10;9.28;;;;;;;21.23;45.48;100274.66;1695518;84;21633;-85
2022/11/05 03:16:11;;;;;;;11.80;8.85;;;;;;;21.23;45.48;100271.90;1687570;83;21071;-84
2022/11/05 03:18:47;;;;;;;13.38;9.75;;;;;;;21.23;45.46;100266.37;1663037;85;21092;-83
2022/11/05 03:21:19;;;;;;;14.80;9.83;;;;;;;21.22;45.47;100265.55;1695060;84;21021;-84
2022/11/05 03:23:59;;;;;;;16.52;10.15;;;;;;;21.23;45.47;100269.13;1695044;84;21124;-84
2022/11/05 03:26:32;;;;;;;14.05;9.55;;;;;;;21.22;45.47;100275.23;1682145;84;21203;-84
2022/11/05 03:29:14;;;;;;;15.60;9.40;;;;;;;21.22;45.45;100277.19;1659417;84;21164;-84
2022/11/05 03:31:41;;;;;;;15.28;9.68;;;;;;;21.23;45.46;100277.44;1688048;82;21586;-84
2022/11/05 03:34:07;;;;;;;14.35;9.45;;;;;;;21.22;45.46;100267.50;1656721;81;21520;-84
2022/11/05 03:36:40;;;;;;;12.70;9.18;;;;;;;21.22;45.45;100266.12;1734279;82;21169;-85
2022/11/05 03:39:09;;;;;;;13.32;9.55;;;;;;;21.22;45.46;100266.12;1715584;82;21060;-84
2022/11/05 03:41:36;;;;;;;14.30;9.35;;;;;;;21.22;45.45;100265.55;1711247;82;21099;-84
2022/11/05 03:44:04;;;;;;;14.98;9.63;;;;;;;21.22;45.44;100264.17;1717572;82;21035;-84
2022/11/05 03:46:44;;;;;;;13.83;9.45;;;;;;;21.23;45.42;100262.22;1711660;82;21036;-84
2022/11/05 03:49:13;;;;;;;14.33;8.85;;;;;;;21.23;45.44;100258.06;1710261;81;21764;-84
2022/11/05 03:51:51;;;;;;;13.22;8.65;;;;;;;21.23;45.41;100251.15;1708399;83;21920;-84
2022/11/05 03:54:18;;;;;;;13.00;8.40;;;;;;;21.22;45.41;100254.48;1707082;82;21064;-84
2022/11/05 03:57:07;;;;;;;13.32;9.18;;;;;;;21.22;45.41;100261.41;1706541;83;21467;-84
2022/11/05 03:59:43;;;;;;;15.38;9.30;;;;;;;21.23;45.41;100266.37;1705544;82;21687;-84
2022/11/05 04:02:11;;;;;;;14.55;9.20;;;;;;;21.22;45.39;100270.27;1707913;82;21052;-84
2022/11/05 04:04:37;;;;;;;12.85;8.50;;;;;;;21.22;45.39;100271.09;1689731;83;21193;-85
2022/11/05 04:14:59;;;;;;;13.53;8.28;;;;;;;21.22;45.38;100278.57;1719652;82;21142;-84
2022/11/05 04:17:25;;;;;;;13.93;9.15;;;;;;;21.22;45.39;100284.10;1722154;82;21179;-84
2022/11/05 04:25:21;;;;;;;11.75;8.65;;;;;;;21.21;45.36;100279.73;1715917;81;21068;-84
2022/11/05 04:27:47;;;;;;;13.43;9.20;;;;;;;21.20;45.35;100281.69;1710598;81;21408;-84
2022/11/05 04:30:18;;;;;;;11.35;8.60;;;;;;;21.20;45.34;100283.08;1716241;81;21116;-84
2022/11/05 04:33:14;;;;;;;12.23;8.88;;;;;;;21.20;45.35;100271.19;1712451;81;21831;-84
2022/11/05 04:35:47;;;;;;;12.63;8.40;;;;;;;21.20;45.35;100277.55;1710549;81;21139;-84
2022/11/05 04:38:16;;;;;;;12.88;8.73;;;;;;;21.20;45.35;100296.09;1715411;81;21137;-84
2022/11/05 04:40:43;;;;;;;9.70;7.65;;;;;;;21.19;45.35;100296.66;1724042;81;21096;-84
2022/11/05 04:43:14;;;;;;;13.53;8.43;;;;;;;21.19;45.36;100287.55;1717764;81;21488;-84
2022/11/05 04:45:40;;;;;;;;;;;;;;;21.19;45.34;100287.55;1713566;81;21045;-84
2022/11/05 04:48:07;;;;;;;11.68;8.45;;;;;;;21.17;45.34;100279.60;1712726;81;20250;-84
2022/11/05 04:50:33;;;;;;;12.93;8.60;;;;;;;21.18;45.38;100282.58;1709737;81;21075;-84
2022/11/05 04:52:59;;;;;;;14.55;7.80;;;;;;;21.16;45.37;100273.82;1724568;82;21140;-84
2022/11/05 04:55:26;;;;;;;11.30;8.55;;;;;;;21.17;45.40;100276.02;1719298;83;21106;-84
2022/11/05 04:57:58;;;;;;;12.80;8.43;;;;;;;21.17;45.35;100267.72;1722252;82;21025;-84
2022/11/05 05:00:24;;;;;;;11.50;8.03;;;;;;;21.18;45.36;100274.85;1727388;82;21127;-84
2022/11/05 05:02:50;;;;;;;11.60;8.40;;;;;;;21.17;45.35;100282.94;1726195;82;21045;-84
2022/11/05 05:05:17;;;;;;;13.00;8.55;;;;;;;21.18;45.35;100294.22;1723590;83;21088;-83
2022/11/05 05:07:44;;;;;;;12.13;8.00;;;;;;;21.17;45.34;100291.23;1726508;82;21176;-84
2022/11/05 05:10:10;;;;;;;10.88;7.47;;;;;;;21.18;45.34;100291.45;1722555;82;21021;-84
2022/11/05 05:12:43;;;;;;;10.72;7.65;;;;;;;21.19;45.36;100288.93;1722700;82;21856;-84
2022/11/05 05:15:09;;;;;;;12.18;8.68;;;;;;;21.18;45.31;100283.16;1725667;81;21051;-84
2022/11/05 05:17:35;;;;;;;11.90;8.23;;;;;;;21.17;45.34;100283.75;1723319;82;21202;-84
2022/11/05 05:22:53;;;;;;;11.28;8.30;;;;;;;21.18;45.31;100280.39;1725894;81;21214;-84
2022/11/05 05:25:19;;;;;;;12.40;7.97;;;;;;;21.18;45.30;100288.11;1725020;81;21147;-84
2022/11/05 05:27:45;;;;;;;14.35;8.48;;;;;;;21.16;45.29;100297.34;1724382;82;21146;-84
2022/11/05 05:30:12;;;;;;;10.50;7.85;;;;;;;21.17;45.29;100306.45;1692752;83;21116;-84
2022/11/05 05:32:38;;;;;;;11.80;8.08;;;;;;;21.16;45.30;100309.78;1716606;83;21143;-84
2022/11/05 05:35:05;;;;;;;10.78;7.28;;;;;;;21.17;45.30;100313.37;1717032;83;21176;-84
2022/11/05 05:37:32;;;;;;;11.05;7.92;;;;;;;21.18;45.30;100314.97;1710763;82;21145;-84
2022/11/05 05:39:58;;;;;;;13.10;8.00;;;;;;;21.17;45.28;100314.19;1690977;82;21087;-84
2022/11/05 05:42:24;;;;;;;12.82;8.15;;;;;;;21.17;45.28;100323.05;1706613;82;21042;-84
2022/11/05 05:44:51;;;;;;;14.00;8.55;;;;;;;21.16;45.30;100322.23;1712809;82;21041;-84
2022/11/05 05:47:17;;;;;;;10.18;7.30;;;;;;;21.17;45.29;100327.20;1712185;82;21532;-84
2022/11/05 05:49:44;;;;;;;11.28;7.50;;;;;;;21.17;45.28;100332.73;1711318;83;21104;-84
2022/11/05 05:52:16;;;;;;;12.65;7.67;;;;;;;21.17;45.29;100333.55;1710250;83;21481;-84
2022/11/05 05:54:42;;;;;;;11.33;7.72;;;;;;;21.17;45.29;100341.03;1717840;83;21095;-84
2022/11/05 05:57:08;;;;;;;10.68;7.58;;;;;;;21.18;45.28;100349.55;1718587;83;21108;-84
2022/11/05 05:59:35;;;;;;;13.93;8.03;;;;;;;21.17;45.28;100359.02;1713310;83;21173;-84
2022/11/05 06:02:01;;;;;;;10.88;7.60;;;;;;;21.16;45.27;100355.43;1717676;83;21205;-84
2022/11/05 06:04:28;;;;;;;10.28;7.92;;;;;;;21.17;45.29;100353.48;1713635;83;22435;-84
2022/11/05 06:09:20;;;;;;;10.50;7.37;;;;;;;21.15;45.25;100360.72;1706769;81;21216;-84
2022/11/05 06:11:46;;;;;;;8.85;6.83;;;;;;;21.16;45.24;100365.11;1697427;82;21029;-84
2022/11/05 06:14:13;;;;;;;9.73;7.67;;;;;;;21.16;45.25;100362.34;1711123;81;21507;-83
2022/11/05 06:16:39;;;;;;;11.53;7.75;;;;;;;21.16;45.25;100358.77;1718253;81;21068;-85
2022/11/05 06:21:32;;;;;;;11.83;7.87;;;;;;;21.15;45.26;100377.31;1714144;81;21582;-84
2022/11/05 06:23:59;;;;;;;9.80;7.53;;;;;;;21.16;45.25;100383.66;1709094;81;21046;-84
2022/11/05 06:26:25;;;;;;;9.35;7.25;;;;;;;21.15;45.25;100385.61;1714254;81;21168;-83
2022/11/05 06:28:51;;;;;;;10.58;7.60;;;;;;;21.15;45.26;100393.91;1707975;81;21024;-84
2022/11/05 06:31:18;;;;;;;11.08;7.42;;;;;;;21.15;45.26;100387.00;1713240;81;21527;-84
2022/11/05 06:33:44;;;;;;;14.63;7.87;;;;;;;21.16;45.26;100382.28;1712193;81;21098;-84
2022/11/05 06:36:14;;;;;;;12.20;7.10;;;;;;;21.15;45.24;100380.64;1717920;81;21060;-84
2022/11/05 06:38:40;;;;;;;12.23;7.80;;;;;;;21.16;45.26;100382.28;1709817;81;21131;-85
2022/11/05 06:41:06;;;;;;;10.25;7.55;;;;;;;21.14;45.25;100381.78;1698345;82;21615;-85
2022/11/05 06:43:33;;;;;;;8.73;6.67;;;;;;;21.16;45.25;100393.34;1700860;82;21070;-84
2022/11/05 06:46:00;;;;;;;11.50;7.35;;;;;;;21.14;45.25;100388.13;1716126;81;21211;-84
2022/11/05 06:48:27;;;;;;;11.60;7.53;;;;;;;21.15;45.25;100388.95;1717696;81;21507;-84
2022/11/05 06:50:53;;;;;;;12.53;7.78;;;;;;;21.15;45.24;100386.18;1718767;81;21083;-84
2022/11/05 06:53:19;;;;;;;10.20;7.22;;;;;;;21.15;45.25;100381.47;1714583;81;20981;-84
2022/11/05 06:55:49;;;;;;;10.60;7.35;;;;;;;21.14;45.26;100379.83;1700668;83;21568;-85
2022/11/05 06:58:15;;;;;;;10.82;7.83;;;;;;;21.15;45.24;100377.88;1716459;83;21125;-84
2022/11/05 07:00:41;;;;;;;10.55;7.58;;;;;;;21.14;45.25;100381.78;1719363;81;21072;-84
2022/11/05 07:03:09;;;;;;;9.20;7.40;;;;;;;21.14;45.25;100381.22;1701725;81;21038;-84
2022/11/05 07:05:39;;;;;;;9.85;6.95;;;;;;;21.14;45.26;100389.52;1713761;81;21080;-84
2022/11/05 07:08:05;;;;;;;10.25;7.70;;;;;;;21.14;45.28;100379.83;1713590;81;21048;-84
2022/11/05 07:10:32;;;;;;;10.10;7.37;;;;;;;21.14;45.27;100380.40;1711261;81;21558;-84
2022/11/05 07:13:04;;;;;;;10.88;7.20;;;;;;;21.14;45.28;100385.36;1703157;81;21114;-84
2022/11/05 07:15:31;;;;;;;11.38;7.37;;;;;;;21.14;45.24;100384.55;1720430;81;21145;-85
2022/11/05 07:17:58;;;;;;;10.00;7.40;;;;;;;21.14;45.25;100383.16;1714743;81;21017;-84
2022/11/05 07:22:51;;;;;;;12.03;8.03;;;;;;;21.14;45.26;100377.63;1714958;81;21772;-84
2022/11/05 07:25:17;;;;;;;11.70;6.90;;;;;;;21.13;45.27;100380.19;1674996;83;21028;-84
2022/11/05 07:27:44;;;;;;;10.45;7.83;;;;;;;21.14;45.27;100380.40;1720825;83;21159;-84
2022/11/05 07:30:10;;;;;;;11.18;7.35;;;;;;;21.13;45.30;100380.19;1724873;83;21057;-85
2022/11/05 07:32:40;;;;;;;12.53;7.00;;;;;;;21.14;45.27;100383.16;1727091;82;21072;-84
2022/11/05 07:35:08;;;;;;;9.90;6.72;;;;;;;21.13;45.29;100380.97;1719054;83;21089;-84
2022/11/05 07:40:10;;;;;;;9.80;6.70;;;;;;;21.14;45.29;100373.48;1725721;83;21542;-84
2022/11/05 07:42:39;;;;;;;9.93;7.17;;;;;;;21.13;45.30;100374.05;1724622;83;21535;-84
2022/11/05 07:45:06;;;;;;;11.38;7.75;;;;;;;21.13;45.30;100379.59;1726125;82;21115;-84
2022/11/05 07:47:32;;;;;;;13.03;7.75;;;;;;;21.13;45.30;100379.59;1725309;82;21071;-84
2022/11/05 07:50:06;;;;;;;10.60;7.62;;;;;;;21.13;45.30;100378.20;1704572;82;21079;-84
2022/11/05 07:52:33;;;;;;;12.60;7.92;;;;;;;21.13;45.32;100380.97;1725349;82;21115;-84
2022/11/05 07:54:59;;;;;;;9.35;6.75;;;;;;;21.13;45.32;100382.35;1725429;82;21024;-84
2022/11/05 07:57:24;;;;;;;10.32;7.58;;;;;;;21.13;45.33;100380.19;1723082;82;21546;-83
2022/11/05 07:59:51;;;;;;;10.43;7.20;;;;;;;21.13;45.34;100388.48;1720262;82;22022;-83
2022/11/05 08:02:17;;;;;;;9.53;7.10;;;;;;;21.13;45.36;100385.12;1727736;82;21127;-84
2022/11/05 08:04:43;;;;;;;10.32;7.33;;;;;;;21.13;45.36;100379.59;1727462;82;21119;-84
2022/11/05 08:09:36;;;;;;;11.57;7.65;;;;;;;21.14;45.37;100382.59;1713539;83;21123;-84
2022/11/05 08:12:03;;;;;;;10.50;6.90;;;;;;;21.14;45.38;100382.59;1726475;82;21113;-83
2022/11/05 08:14:29;;;;;;;9.85;7.33;;;;;;;21.14;45.38;100376.25;1724473;83;21175;-84
2022/11/05 08:16:57;;;;;;;11.28;7.75;;;;;;;21.13;45.39;100375.44;1695285;81;21071;-85
2022/11/05 08:21:49;;;;;;;9.90;7.22;;;;;;;21.13;45.38;100383.73;1686328;83;21036;-84
2022/11/05 08:24:15;;;;;;;10.80;7.25;;;;;;;21.14;45.40;100384.55;1684424;83;21223;-84
2022/11/05 08:26:41;;;;;;;14.58;7.40;;;;;;;21.14;45.39;100383.16;1681494;83;21089;-84
2022/11/05 08:29:08;;;;;;;12.00;6.67;;;;;;;21.14;45.42;100382.59;1681590;83;21053;-84
2022/11/05 08:31:35;;;;;;;10.80;7.25;;;;;;;21.15;45.41;100377.88;1714688;81;21646;-84
2022/11/05 08:34:02;;;;;;;11.00;7.12;;;;;;;21.15;45.43;100381.47;1741298;81;21059;-84
2022/11/05 08:36:28;;;;;;;10.65;6.80;;;;;;;21.15;45.43;100370.40;1741167;81;21155;-84
2022/11/05 08:38:55;;;;;;;8.98;7.10;;;;;;;21.16;45.44;100370.64;1731625;81;21120;-83
2022/11/05 08:41:21;;;;;;;11.55;7.70;;;;;;;21.17;45.45;100363.16;1726656;82;21440;-84
2022/11/05 08:43:47;;;;;;;11.25;7.33;;;;;;;21.17;45.46;100359.02;1723989;82;21781;-84
2022/11/05 08:46:14;;;;;;;9.43;7.28;;;;;;;21.17;45.45;100353.48;1690592;83;21494;-84
2022/11/05 08:48:39;;;;;;;11.50;7.35;;;;;;;21.18;45.45;100357.84;1721323;82;21562;-84
2022/11/05 08:51:06;;;;;;;10.38;7.40;;;;;;;21.17;45.46;100351.53;1724073;82;21016;-84
2022/11/05 08:53:32;;;;;;;12.37;7.85;;;;;;;21.18;45.45;100350.93;1724858;82;21523;-84
2022/11/05 08:55:59;;;;;;;10.65;7.22;;;;;;;21.19;45.48;100355.33;1722092;82;21159;-84
2022/11/05 08:58:25;;;;;;;10.85;7.03;;;;;;;21.19;45.48;100347.84;1711066;83;21089;-84
2022/11/05 09:00:52;;;;;;;11.10;6.95;;;;;;;21.19;45.50;100344.26;1720129;82;21183;-84
2022/11/05 09:03:18;;;;;;;10.23;7.17;;;;;;;21.20;45.49;100347.27;1726505;82;21707;-83
2022/11/05 09:05:44;;;;;;;11.03;6.95;;;;;;;21.20;45.50;100345.32;1716393;82;21069;-84
2022/11/05 09:08:13;;;;;;;11.30;7.45;;;;;;;21.20;45.49;100350.85;1726002;82;21017;-84
2022/11/05 09:10:40;;;;;;;12.03;7.70;;;;;;;21.21;45.50;100346.14;1712068;81;21104;-83
2022/11/05 09:15:32;;;;;;;12.50;7.97;;;;;;;21.22;45.52;100356.03;1712541;81;21068;-84
2022/11/05 09:17:59;;;;;;;12.40;7.05;;;;;;;21.22;45.52;100349.94;1713200;81;21479;-83
2022/11/05 09:20:25;;;;;;;10.03;7.05;;;;;;;21.23;45.52;100357.09;1713697;81;21551;-83
2022/11/05 09:22:51;;;;;;;8.68;6.78;;;;;;;21.23;45.51;100347.98;1719256;81;21052;-84
2022/11/05 09:25:17;;;;;;;10.50;7.92;;;;;;;21.24;45.51;100353.77;1730823;81;21931;-84
2022/11/05 09:27:44;;;;;;;9.70;6.95;;;;;;;21.24;45.50;100353.20;1730096;81;21028;-84
2022/11/05 09:30:11;;;;;;;10.23;7.40;;;;;;;21.25;45.50;100355.39;1728565;82;21055;-84
2022/11/05 09:32:38;;;;;;;9.60;7.08;;;;;;;21.26;45.49;100355.64;1726979;81;21311;-84
2022/11/05 09:35:05;;;;;;;10.58;7.58;;;;;;;21.25;45.50;100350.67;1732526;81;21155;-84
2022/11/05 09:37:31;;;;;;;11.68;7.30;;;;;;;21.26;45.49;100348.72;1728126;82;21176;-84
2022/11/05 09:39:58;;;;;;;13.22;7.62;;;;;;;21.26;45.51;100343.97;1731367;82;21052;-83
2022/11/05 09:42:38;;;;;;;11.05;7.40;;;;;;;21.26;45.50;100345.95;1731673;81;21088;-84
2022/11/05 09:45:11;;;;;;;9.83;6.75;;;;;;;21.27;45.50;100348.94;1724239;82;21068;-84
2022/11/05 09:47:37;;;;;;;10.23;7.50;;;;;;;21.26;45.50;100349.51;1725626;83;21056;-83
2022/11/05 09:50:08;;;;;;;11.15;7.08;;;;;;;21.27;45.48;100353.91;1725890;82;21164;-84
2022/11/05 09:52:34;;;;;;;10.72;7.42;;;;;;;21.27;45.49;100353.91;1725543;81;21057;-83
2022/11/05 09:55:00;;;;;;;11.88;7.30;;;;;;;21.27;45.50;100351.70;1722997;82;21017;-84
2022/11/05 09:57:32;;;;;;;11.00;7.17;;;;;;;21.28;45.49;100349.19;1726369;83;20893;-84
2022/11/05 10:00:01;;;;;;;10.23;7.20;;;;;;;21.28;45.50;100350.00;1724458;81;21007;-83
2022/11/05 10:02:34;;;;;;;12.90;7.78;;;;;;;21.28;45.50;100346.42;1725282;82;21121;-84
2022/11/05 10:05:06;;;;;;;9.45;7.08;;;;;;;21.27;45.50;100346.17;1724322;82;21103;-84
2022/11/05 10:07:37;;;;;;;10.58;7.25;;;;;;;21.28;45.50;100338.93;1724292;81;21069;-84
2022/11/05 10:10:07;;;;;;;9.18;6.80;;;;;;;21.28;45.50;100338.93;1714337;82;21091;-84
2022/11/05 10:12:38;;;;;;;10.20;7.40;;;;;;;21.29;45.50;100342.52;1701990;83;21061;-83
2022/11/05 10:15:19;;;;;;;11.68;7.28;;;;;;;21.29;45.51;100341.13;1685182;83;22209;-84
2022/11/05 10:17:50;;;;;;;12.43;7.37;;;;;;;21.29;45.50;100336.98;1685078;84;21014;-84
2022/11/05 10:20:37;;;;;;;9.08;7.12;;;;;;;21.29;45.51;100332.83;1689873;83;21598;-84
2022/11/05 10:23:16;;;;;;;10.13;7.35;;;;;;;21.29;45.50;100326.73;1692553;83;21132;-84
2022/11/05 10:25:54;;;;;;;10.82;7.78;;;;;;;21.28;45.50;100327.05;1702332;82;21595;-84
2022/11/05 10:28:24;;;;;;;9.68;6.97;;;;;;;21.28;45.52;100329.25;1716617;82;21713;-83
2022/11/05 10:30:54;;;;;;;11.05;7.75;;;;;;;21.29;45.51;100332.26;1716739;82;21028;-84
2022/11/05 10:33:34;;;;;;;10.67;6.97;;;;;;;21.29;45.52;100332.83;1723484;82;21637;-84
2022/11/05 10:36:05;;;;;;;11.65;8.08;;;;;;;21.30;45.54;100330.31;1712559;82;21115;-84
2022/11/05 10:38:32;;;;;;;11.28;7.33;;;;;;;21.29;45.54;100332.26;1690868;82;21001;-84
2022/11/05 10:41:12;;;;;;;10.00;7.55;;;;;;;21.29;45.57;100330.88;1703766;82;21067;-84
2022/11/05 10:43:56;;;;;;;11.28;7.50;;;;;;;21.29;45.57;100329.49;1703896;82;21172;-84
2022/11/05 10:46:39;;;;;;;9.63;6.92;;;;;;;21.28;45.56;100332.02;1709708;82;21479;-85
2022/11/05 10:51:56;;;;;;;11.00;7.83;;;;;;;21.29;45.58;100328.11;1685343;82;21265;-84
2022/11/05 10:54:25;;;;;;;10.75;7.08;;;;;;;21.30;45.60;100331.09;1711355;82;21220;-86
2022/11/05 10:56:51;;;;;;;12.35;7.55;;;;;;;21.30;45.59;100328.92;1708416;82;21099;-84
2022/11/05 10:59:24;;;;;;;10.23;7.37;;;;;;;21.30;45.61;100315.88;1723102;82;21088;-85
2022/11/05 11:02:16;;;;;;;11.57;7.80;;;;;;;21.31;45.62;100313.35;1731128;81;21116;-84
2022/11/05 11:07:27;;;;;;;11.00;7.85;;;;;;;21.31;45.62;100310.59;1729171;82;20931;-84
2022/11/05 11:09:53;;;;;;;11.88;7.50;;;;;;;21.30;45.63;100307.58;1704090;82;21167;-85
2022/11/05 11:12:28;;;;;;;10.32;7.45;;;;;;;21.32;45.63;100314.16;1701726;83;21121;-84
2022/11/05 11:15:04;;;;;;;10.70;7.80;;;;;;;21.32;45.63;100312.78;1711078;82;21031;-85
2022/11/05 11:17:31;;;;;;;10.98;7.45;;;;;;;21.30;45.65;100310.34;1706527;83;21056;-85
2022/11/05 11:19:57;;;;;;;11.18;7.95;;;;;;;21.32;45.67;100308.63;1711615;82;21106;-85
2022/11/05 11:22:23;;;;;;;12.33;7.62;;;;;;;21.32;45.69;100316.37;1716572;82;21533;-85
2022/11/05 11:24:52;;;;;;;10.88;7.58;;;;;;;21.33;45.69;100313.03;1712013;82;21052;-85
2022/11/05 11:27:26;;;;;;;9.50;7.42;;;;;;;21.34;45.69;100309.13;1717502;82;21107;-84
2022/11/05 11:30:00;;;;;;;10.50;7.22;;;;;;;21.33;45.71;100304.16;1716015;81;21019;-84
2022/11/05 11:32:34;;;;;;;10.32;6.70;;;;;;;21.34;45.73;100309.91;1716550;82;21218;-85
2022/11/05 11:35:00;;;;;;;11.25;7.95;;;;;;;21.34;45.72;100304.97;1724876;81;21114;-85
2022/11/05 11:37:34;;;;;;;10.65;7.70;;;;;;;21.34;45.73;100302.98;1710036;82;21127;-84
2022/11/05 11:40:23;;;;;;;12.03;7.45;;;;;;;21.34;45.74;100302.20;1733648;82;21040;-85
2022/11/05 11:42:54;;;;;;;11.28;8.03;;;;;;;21.34;45.75;100296.07;1729072;82;21139;-85
2022/11/05 11:45:32;;;;;;;11.60;7.78;;;;;;;21.35;45.74;100296.31;1711743;82;22099;-85
2022/11/05 11:48:03;;;;;;;10.30;7.78;;;;;;;21.35;45.76;100295.50;1715400;83;21202;-84
2022/11/05 11:50:44;;;;;;;10.60;7.55;;;;;;;21.35;45.80;100294.13;1712918;83;21037;-84
2022/11/05 11:53:25;;;;;;;9.55;7.33;;;;;;;21.35;45.80;100292.73;1718275;83;21084;-84
2022/11/05 11:55:57;;;;;;;;;;;;;;;21.34;45.82;100289.16;1710809;82;21558;-85
2022/11/05 11:58:39;;;;;;;9.25;6.95;;;;;;;21.34;45.87;100295.29;1717089;82;21036;-84
2022/11/05 12:01:23;;;;;;;11.00;7.60;;;;;;;21.33;45.86;100290.33;1712829;82;21170;-84
2022/11/05 12:04:03;;;;;;;11.35;7.90;;;;;;;21.34;45.86;100293.91;1713071;82;21025;-84
2022/11/05 12:06:49;;;;;;;11.18;8.03;;;;;;;21.33;45.89;100293.66;1688281;83;21036;-84
2022/11/05 12:12:33;;;;;;;9.80;7.70;;;;;;;21.33;45.91;100290.89;1729009;82;21056;-84
2022/11/05 12:15:23;;;;;;;9.93;7.33;;;;;;;21.32;45.92;100290.65;1717401;82;21835;-84
2022/11/05 12:18:04;;;;;;;11.70;8.23;;;;;;;21.32;45.96;100289.27;1734429;82;21082;-85
2022/11/05 12:21:07;;;;;;;12.80;7.85;;;;;;;21.32;45.97;100296.18;1717265;82;21087;-84
2022/11/05 12:24:23;;;;;;;9.28;7.28;;;;;;;21.30;46.00;100290.97;1723543;82;21618;-84
2022/11/05 12:27:22;;;;;;;12.60;7.80;;;;;;;21.31;45.99;100295.94;1723868;82;22001;-83
2022/11/05 12:30:12;;;;;;;11.48;7.92;;;;;;;21.29;46.04;100294.09;1724275;82;21091;-84
2022/11/05 12:33:06;;;;;;;11.28;6.90;;;;;;;21.28;46.05;100295.23;1719010;82;21745;-85
2022/11/05 12:35:46;;;;;;;10.25;8.03;;;;;;;21.28;46.08;100297.42;1722174;81;21479;-84
2022/11/05 12:38:27;;;;;;;12.65;8.28;;;;;;;21.28;46.10;100292.47;1720808;82;21028;-85
2022/11/05 12:41:32;;;;;;;12.78;8.08;;;;;;;21.28;46.13;100289.70;1724728;82;21218;-84
2022/11/05 12:44:34;;;;;;;12.80;7.53;;;;;;;21.27;46.17;100290.84;1714765;83;21270;-84
2022/11/05 12:47:21;;;;;;;12.50;8.28;;;;;;;21.27;46.17;100297.18;1724736;82;21689;-84